PWSweather.com
Personal Weather Stations
Station Observations
SEVANL01
SevillaES 41004

SevillaES 41004

Lat: 37.383633, Lon: -5.985787

Elevation: 19.685

Station Type: Davis Vantage Pro2

www.tiempoensevilla.es

High Low Average
Temperature 100.0°F37.8°F 82.3°F27.9°F 89.0°F31.7°F
Dew Point 56.7°F13.7°F 51.6°F10.9°F 53.9°F12.2°F
Winds 12.6 mph NW20.3 mph NW 1.1 mph 1.8 mph 5.0 mph 8.0 mph
Wind Gusts 26.0 mph41.8 mph 3.0 mph4.8 mph 10.4 mph16.7 mph
Humidity 38% 21% 31%
Pressure 29.95 in1014.20 in 29.77 in1008.10 in -
Precipitation 0.00 in0.00 in - -
Hour Temp Dew Point Humidity Winds Wind Gusts Pressure Precip Precip Rate Daily Precip Total
12:00 AM 88.7°F31.5°C 52.4°F11.3°C 29% 3.4 mph NE5.5 kmh NE 7.0 mph11.3 kmh 29.94 in1013.9 mb 0.00 in0.0 mm 0.00 in0.0 mm 0.00 in0.0 mm
12:20 AM 88.6°F31.4°C 52.3°F11.3°C 29% 2.8 mph NE4.5 kmh NE 9.0 mph14.5 kmh 29.95 in1014.2 mb 0.00 in0.0 mm 0.00 in0.0 mm 0.00 in0.0 mm
12:40 AM 88.2°F31.2°C 51.9°F11.1°C 29% 2.4 mph ENE3.9 kmh ENE 4.0 mph6.4 kmh 29.95 in1014.2 mb 0.00 in0.0 mm 0.00 in0.0 mm 0.00 in0.0 mm
01:00 AM 88.0°F31.1°C 51.8°F11.0°C 29% 3.9 mph E6.3 kmh E 12.0 mph19.3 kmh 29.91 in1012.9 mb 0.00 in0.0 mm 0.00 in0.0 mm 0.00 in0.0 mm
01:20 AM 87.3°F30.7°C 52.1°F11.2°C 30% 5.9 mph ESE9.5 kmh ESE 11.0 mph17.7 kmh 29.91 in1012.9 mb 0.00 in0.0 mm 0.00 in0.0 mm 0.00 in0.0 mm
01:40 AM 87.2°F30.7°C 52.0°F11.1°C 30% 4.7 mph E7.6 kmh E 10.0 mph16.1 kmh 29.91 in1012.9 mb 0.00 in0.0 mm 0.00 in0.0 mm 0.00 in0.0 mm
02:00 AM 86.7°F30.4°C 52.4°F11.3°C 31% 2.4 mph NE3.9 kmh NE 4.0 mph6.4 kmh 29.91 in1012.9 mb 0.00 in0.0 mm 0.00 in0.0 mm 0.00 in0.0 mm
02:20 AM 86.8°F30.4°C 51.6°F10.9°C 30% 2.1 mph NE3.4 kmh NE 3.0 mph4.8 kmh 29.91 in1012.9 mb 0.00 in0.0 mm 0.00 in0.0 mm 0.00 in0.0 mm
02:40 AM 86.9°F30.5°C 51.7°F10.9°C 30% 3.0 mph NE4.8 kmh NE 7.0 mph11.3 kmh 29.91 in1012.9 mb 0.00 in0.0 mm 0.00 in0.0 mm 0.00 in0.0 mm
03:00 AM 86.0°F30.0°C 52.7°F11.5°C 32% 3.0 mph NE4.8 kmh NE 7.0 mph11.3 kmh 29.90 in1012.5 mb 0.00 in0.0 mm 0.00 in0.0 mm 0.00 in0.0 mm
03:20 AM 85.7°F29.8°C 52.4°F11.3°C 32% 2.9 mph ENE4.7 kmh ENE 6.0 mph9.7 kmh 29.90 in1012.5 mb 0.00 in0.0 mm 0.00 in0.0 mm 0.00 in0.0 mm
03:40 AM 85.2°F29.6°C 54.5°F12.5°C 35% 3.1 mph NW5.0 kmh NW 6.0 mph9.7 kmh 29.93 in1013.5 mb 0.00 in0.0 mm 0.00 in0.0 mm 0.00 in0.0 mm
04:00 AM 84.9°F29.4°C 53.4°F11.9°C 34% 2.0 mph N3.2 kmh N 4.0 mph6.4 kmh 29.91 in1012.9 mb 0.00 in0.0 mm 0.00 in0.0 mm 0.00 in0.0 mm
04:20 AM 85.1°F29.5°C 53.6°F12.0°C 34% 2.1 mph WNW3.4 kmh WNW 7.0 mph11.3 kmh 29.91 in1012.9 mb 0.00 in0.0 mm 0.00 in0.0 mm 0.00 in0.0 mm
04:40 AM 84.7°F29.3°C 53.2°F11.8°C 34% 3.0 mph E4.8 kmh E 4.0 mph6.4 kmh 29.91 in1012.9 mb 0.00 in0.0 mm 0.00 in0.0 mm 0.00 in0.0 mm
05:00 AM 84.7°F29.3°C 53.2°F11.8°C 34% 3.5 mph NNE5.6 kmh NNE 7.0 mph11.3 kmh 29.91 in1012.9 mb 0.00 in0.0 mm 0.00 in0.0 mm 0.00 in0.0 mm
05:20 AM 84.4°F29.1°C 53.0°F11.7°C 34% 5.1 mph E8.2 kmh E 12.0 mph19.3 kmh 29.88 in1011.9 mb 0.00 in0.0 mm 0.00 in0.0 mm 0.00 in0.0 mm
05:40 AM 84.9°F29.4°C 52.6°F11.4°C 33% 7.6 mph SE12.2 kmh SE 12.0 mph19.3 kmh 29.87 in1011.5 mb 0.00 in0.0 mm 0.00 in0.0 mm 0.00 in0.0 mm
06:00 AM 84.9°F29.4°C 53.4°F11.9°C 34% 4.3 mph N6.9 kmh N 11.0 mph17.7 kmh 29.87 in1011.5 mb 0.00 in0.0 mm 0.00 in0.0 mm 0.00 in0.0 mm
06:20 AM 82.6°F28.1°C 53.7°F12.1°C 37% 6.2 mph NNW10.0 kmh NNW 12.0 mph19.3 kmh 29.87 in1011.5 mb 0.00 in0.0 mm 0.00 in0.0 mm 0.00 in0.0 mm
06:40 AM 82.6°F28.1°C 52.9°F11.6°C 36% 3.3 mph NNW5.3 kmh NNW 10.0 mph16.1 kmh 29.88 in1011.9 mb 0.00 in0.0 mm 0.00 in0.0 mm 0.00 in0.0 mm
07:00 AM 82.3°F27.9°C 52.7°F11.5°C 36% 2.5 mph N4.0 kmh N 6.0 mph9.7 kmh 29.88 in1011.9 mb 0.00 in0.0 mm 0.00 in0.0 mm 0.00 in0.0 mm
07:20 AM 83.3°F28.5°C 52.8°F11.6°C 35% 3.0 mph NNW4.8 kmh NNW 7.0 mph11.3 kmh 29.87 in1011.5 mb 0.00 in0.0 mm 0.00 in0.0 mm 0.00 in0.0 mm
07:40 AM 83.7°F28.7°C 53.1°F11.7°C 35% 4.1 mph N6.6 kmh N 8.0 mph12.9 kmh 29.85 in1010.8 mb 0.00 in0.0 mm 0.00 in0.0 mm 0.00 in0.0 mm
08:00 AM 83.9°F28.8°C 54.1°F12.3°C 36% 4.9 mph NNW7.9 kmh NNW 10.0 mph16.1 kmh 29.85 in1010.8 mb 0.00 in0.0 mm 0.00 in0.0 mm 0.00 in0.0 mm
08:20 AM 84.8°F29.3°C 54.9°F12.7°C 36% 4.3 mph N6.9 kmh N 11.0 mph17.7 kmh 29.85 in1010.8 mb 0.00 in0.0 mm 0.00 in0.0 mm 0.00 in0.0 mm
08:40 AM 85.6°F29.8°C 54.8°F12.7°C 35% 5.1 mph NNW8.2 kmh NNW 10.0 mph16.1 kmh 29.86 in1011.2 mb 0.00 in0.0 mm 0.00 in0.0 mm 0.00 in0.0 mm
09:00 AM 87.4°F30.8°C 54.8°F12.7°C 33% 4.8 mph N7.7 kmh N 9.0 mph14.5 kmh 29.85 in1010.8 mb 0.00 in0.0 mm 0.00 in0.0 mm 0.00 in0.0 mm
09:20 AM 88.9°F31.6°C 55.2°F12.9°C 32% 3.7 mph N6.0 kmh N 6.0 mph9.7 kmh 29.86 in1011.2 mb 0.00 in0.0 mm 0.00 in0.0 mm 0.00 in0.0 mm
09:40 AM 90.1°F32.3°C 55.4°F13.0°C 31% 4.0 mph NE6.4 kmh NE 8.0 mph12.9 kmh 29.85 in1010.8 mb 0.00 in0.0 mm 0.00 in0.0 mm 0.00 in0.0 mm
10:00 AM 92.0°F33.3°C 55.2°F12.9°C 29% 4.0 mph NE6.4 kmh NE 8.0 mph12.9 kmh 29.85 in1010.8 mb 0.00 in0.0 mm 0.00 in0.0 mm 0.00 in0.0 mm
10:20 AM 93.0°F33.9°C 52.0°F11.1°C 25% 5.5 mph NE8.9 kmh NE 10.0 mph16.1 kmh 29.84 in1010.5 mb 0.00 in0.0 mm 0.00 in0.0 mm 0.00 in0.0 mm
10:40 AM 92.9°F33.8°C 53.0°F11.7°C 26% 4.8 mph NE7.7 kmh NE 10.0 mph16.1 kmh 29.84 in1010.5 mb 0.00 in0.0 mm 0.00 in0.0 mm 0.00 in0.0 mm
11:00 AM 94.1°F34.5°C 52.9°F11.6°C 25% 4.8 mph NNE7.7 kmh NNE 10.0 mph16.1 kmh 29.85 in1010.8 mb 0.00 in0.0 mm 0.00 in0.0 mm 0.00 in0.0 mm
11:20 AM 94.7°F34.8°C 52.3°F11.3°C 24% 4.0 mph NNE6.4 kmh NNE 10.0 mph16.1 kmh 29.85 in1010.8 mb 0.00 in0.0 mm 0.00 in0.0 mm 0.00 in0.0 mm
11:40 AM 95.5°F35.3°C 51.8°F11.0°C 23% 6.1 mph NE9.8 kmh NE 12.0 mph19.3 kmh 29.84 in1010.5 mb 0.00 in0.0 mm 0.00 in0.0 mm 0.00 in0.0 mm
12:00 PM 94.3°F34.6°C 54.1°F12.3°C 26% 5.0 mph NNW8.0 kmh NNW 11.0 mph17.7 kmh 29.85 in1010.8 mb 0.00 in0.0 mm 0.00 in0.0 mm 0.00 in0.0 mm
12:20 PM 95.4°F35.2°C 55.1°F12.8°C 26% 3.7 mph N6.0 kmh N 9.0 mph14.5 kmh 29.85 in1010.8 mb 0.00 in0.0 mm 0.00 in0.0 mm 0.00 in0.0 mm
12:40 PM 95.6°F35.3°C 55.2°F12.9°C 26% 2.2 mph NW3.5 kmh NW 9.0 mph14.5 kmh 29.84 in1010.5 mb 0.00 in0.0 mm 0.00 in0.0 mm 0.00 in0.0 mm
01:00 PM 96.6°F35.9°C 53.9°F12.2°C 24% 4.3 mph NE6.9 kmh NE 11.0 mph17.7 kmh 29.82 in1009.8 mb 0.00 in0.0 mm 0.00 in0.0 mm 0.00 in0.0 mm
01:20 PM 97.2°F36.2°C 54.4°F12.4°C 24% 4.1 mph N6.6 kmh N 9.0 mph14.5 kmh 29.80 in1009.1 mb 0.00 in0.0 mm 0.00 in0.0 mm 0.00 in0.0 mm
01:40 PM 97.6°F36.4°C 53.6°F12.0°C 23% 4.5 mph N7.2 kmh N 10.0 mph16.1 kmh 29.79 in1008.8 mb 0.00 in0.0 mm 0.00 in0.0 mm 0.00 in0.0 mm
02:00 PM 98.7°F37.1°C 53.3°F11.8°C 22% 4.3 mph NE6.9 kmh NE 7.0 mph11.3 kmh 29.78 in1008.5 mb 0.00 in0.0 mm 0.00 in0.0 mm 0.00 in0.0 mm
02:20 PM 99.1°F37.3°C 52.3°F11.3°C 21% 2.6 mph WNW4.2 kmh WNW 8.0 mph12.9 kmh 29.78 in1008.5 mb 0.00 in0.0 mm 0.00 in0.0 mm 0.00 in0.0 mm
02:40 PM 99.5°F37.5°C 53.9°F12.2°C 22% 3.0 mph SW4.8 kmh SW 7.0 mph11.3 kmh 29.79 in1008.8 mb 0.00 in0.0 mm 0.00 in0.0 mm 0.00 in0.0 mm
03:00 PM 99.4°F37.4°C 53.8°F12.1°C 22% 3.3 mph W5.3 kmh W 9.0 mph14.5 kmh 29.78 in1008.5 mb 0.00 in0.0 mm 0.00 in0.0 mm 0.00 in0.0 mm
03:20 PM 100.0°F37.8°C 53.1°F11.7°C 21% 5.2 mph SW8.4 kmh SW 10.0 mph16.1 kmh 29.77 in1008.1 mb 0.00 in0.0 mm 0.00 in0.0 mm 0.00 in0.0 mm
03:40 PM 94.7°F34.8°C 56.5°F13.6°C 28% 10.4 mph WNW16.7 kmh WNW 20.0 mph32.2 kmh 29.80 in1009.1 mb 0.00 in0.0 mm 0.00 in0.0 mm 0.00 in0.0 mm
04:00 PM 93.0°F33.9°C 55.1°F12.8°C 28% 11.0 mph NW17.7 kmh NW 26.0 mph41.8 kmh 29.80 in1009.1 mb 0.00 in0.0 mm 0.00 in0.0 mm 0.00 in0.0 mm
04:20 PM 92.1°F33.4°C 56.2°F13.4°C 30% 10.0 mph NW16.1 kmh NW 20.0 mph32.2 kmh 29.81 in1009.5 mb 0.00 in0.0 mm 0.00 in0.0 mm 0.00 in0.0 mm
04:40 PM 90.8°F32.7°C 56.0°F13.3°C 31% 11.3 mph NW18.2 kmh NW 24.0 mph38.6 kmh 29.81 in1009.5 mb 0.00 in0.0 mm 0.00 in0.0 mm 0.00 in0.0 mm
05:00 PM 90.6°F32.6°C 56.7°F13.7°C 32% 11.9 mph NW19.2 kmh NW 23.0 mph37.0 kmh 29.80 in1009.1 mb 0.00 in0.0 mm 0.00 in0.0 mm 0.00 in0.0 mm
05:20 PM 90.0°F32.2°C 56.2°F13.4°C 32% 11.8 mph NNW19.0 kmh NNW 23.0 mph37.0 kmh 29.80 in1009.1 mb 0.00 in0.0 mm 0.00 in0.0 mm 0.00 in0.0 mm
05:40 PM 89.4°F31.9°C 56.5°F13.6°C 33% 12.6 mph NW20.3 kmh NW 24.0 mph38.6 kmh 29.80 in1009.1 mb 0.00 in0.0 mm 0.00 in0.0 mm 0.00 in0.0 mm
06:00 PM 88.7°F31.5°C 55.9°F13.3°C 33% 12.0 mph N19.3 kmh N 23.0 mph37.0 kmh 29.79 in1008.8 mb 0.00 in0.0 mm 0.00 in0.0 mm 0.00 in0.0 mm
06:20 PM 88.6°F31.4°C 54.1°F12.3°C 31% 11.4 mph NNW18.3 kmh NNW 19.0 mph30.6 kmh 29.79 in1008.8 mb 0.00 in0.0 mm 0.00 in0.0 mm 0.00 in0.0 mm
06:40 PM 88.4°F31.3°C 53.9°F12.2°C 31% 10.7 mph N17.2 kmh N 19.0 mph30.6 kmh 29.79 in1008.8 mb 0.00 in0.0 mm 0.00 in0.0 mm 0.00 in0.0 mm
07:00 PM 88.5°F31.4°C 54.0°F12.2°C 31% 8.8 mph N14.2 kmh N 16.0 mph25.7 kmh 29.80 in1009.1 mb 0.00 in0.0 mm 0.00 in0.0 mm 0.00 in0.0 mm
07:20 PM 88.7°F31.5°C 54.2°F12.3°C 31% 7.9 mph NW12.7 kmh NW 15.0 mph24.1 kmh 29.80 in1009.1 mb 0.00 in0.0 mm 0.00 in0.0 mm 0.00 in0.0 mm
07:40 PM 87.7°F30.9°C 54.2°F12.3°C 32% 7.5 mph NNW12.1 kmh NNW 14.0 mph22.5 kmh 29.81 in1009.5 mb 0.00 in0.0 mm 0.00 in0.0 mm 0.00 in0.0 mm
08:00 PM 87.5°F30.8°C 54.0°F12.2°C 32% 4.7 mph N7.6 kmh N 11.0 mph17.7 kmh 29.81 in1009.5 mb 0.00 in0.0 mm 0.00 in0.0 mm 0.00 in0.0 mm
08:20 PM 86.9°F30.5°C 54.3°F12.4°C 33% 4.0 mph ENE6.4 kmh ENE 9.0 mph14.5 kmh 29.81 in1009.5 mb 0.00 in0.0 mm 0.00 in0.0 mm 0.00 in0.0 mm
08:40 PM 86.6°F30.3°C 54.1°F12.3°C 33% 4.1 mph E6.6 kmh E 10.0 mph16.1 kmh 29.81 in1009.5 mb 0.00 in0.0 mm 0.00 in0.0 mm 0.00 in0.0 mm
09:00 PM 86.8°F30.4°C 55.1°F12.8°C 34% 3.6 mph E5.8 kmh E 9.0 mph14.5 kmh 29.82 in1009.8 mb 0.00 in0.0 mm 0.00 in0.0 mm 0.00 in0.0 mm
09:20 PM 85.8°F29.9°C 55.0°F12.8°C 35% 4.5 mph E7.2 kmh E 9.0 mph14.5 kmh 29.83 in1010.2 mb 0.00 in0.0 mm 0.00 in0.0 mm 0.00 in0.0 mm
09:40 PM 85.5°F29.7°C 54.7°F12.6°C 35% 4.0 mph E6.4 kmh E 8.0 mph12.9 kmh 29.83 in1010.2 mb 0.00 in0.0 mm 0.00 in0.0 mm 0.00 in0.0 mm
10:00 PM 85.0°F29.4°C 54.3°F12.4°C 35% 4.2 mph E6.8 kmh E 8.0 mph12.9 kmh 29.84 in1010.5 mb 0.00 in0.0 mm 0.00 in0.0 mm 0.00 in0.0 mm
10:20 PM 84.9°F29.4°C 54.2°F12.3°C 35% 2.2 mph E3.5 kmh E 6.0 mph9.7 kmh 29.85 in1010.8 mb 0.00 in0.0 mm 0.00 in0.0 mm 0.00 in0.0 mm
10:40 PM 85.0°F29.4°C 54.3°F12.4°C 35% 1.6 mph SSE2.6 kmh SSE 4.0 mph6.4 kmh 29.85 in1010.8 mb 0.00 in0.0 mm 0.00 in0.0 mm 0.00 in0.0 mm
11:00 PM 84.8°F29.3°C 54.9°F12.7°C 36% 2.0 mph SSW3.2 kmh SSW 4.0 mph6.4 kmh 29.86 in1011.2 mb 0.00 in0.0 mm 0.00 in0.0 mm 0.00 in0.0 mm
11:20 PM 84.2°F29.0°C 55.8°F13.2°C 38% 1.1 mph SW1.8 kmh SW 4.0 mph6.4 kmh 29.86 in1011.2 mb 0.00 in0.0 mm 0.00 in0.0 mm 0.00 in0.0 mm
11:40 PM 83.6°F28.7°C 55.3°F12.9°C 38% 2.0 mph SW3.2 kmh SW 4.0 mph6.4 kmh 29.86 in1011.2 mb 0.00 in0.0 mm 0.00 in0.0 mm 0.00 in0.0 mm